sensor_id;sensor_type;location;lat;lon;timestamp;pressure;altitude;pressure_sealevel;temperature;humidity
20228;BME280;12195;55.790;37.572;2023-02-13T00:02:21;100078.06;;;-5.59;78.58
20228;BME280;12195;55.790;37.572;2023-02-13T00:04:53;100069.54;;;-5.58;78.55
20228;BME280;12195;55.790;37.572;2023-02-13T00:07:25;100059.37;;;-5.55;78.57
20228;BME280;12195;55.790;37.572;2023-02-13T00:09:58;100050.00;;;-5.53;78.54
20228;BME280;12195;55.790;37.572;2023-02-13T00:12:30;100052.64;;;-5.48;78.56
20228;BME280;12195;55.790;37.572;2023-02-13T00:15:03;100039.16;;;-5.37;78.43
20228;BME280;12195;55.790;37.572;2023-02-13T00:17:36;100035.75;;;-5.36;78.41
20228;BME280;12195;55.790;37.572;2023-02-13T00:20:10;100037.54;;;-5.30;78.44
20228;BME280;12195;55.790;37.572;2023-02-13T00:22:42;100024.82;;;-5.26;78.42
20228;BME280;12195;55.790;37.572;2023-02-13T00:25:14;100030.82;;;-5.22;78.39
20228;BME280;12195;55.790;37.572;2023-02-13T00:27:47;100018.92;;;-5.19;78.39
20228;BME280;12195;55.790;37.572;2023-02-13T00:30:19;100014.77;;;-5.12;78.31
20228;BME280;12195;55.790;37.572;2023-02-13T00:32:52;100008.81;;;-5.08;78.39
20228;BME280;12195;55.790;37.572;2023-02-13T00:35:26;100013.27;;;-4.92;78.58
20228;BME280;12195;55.790;37.572;2023-02-13T00:37:58;100010.64;;;-5.00;78.11
20228;BME280;12195;55.790;37.572;2023-02-13T00:40:31;100002.11;;;-4.99;78.04
20228;BME280;12195;55.790;37.572;2023-02-13T00:43:03;99998.73;;;-4.98;78.04
20228;BME280;12195;55.790;37.572;2023-02-13T00:45:36;99989.38;;;-4.94;77.97
20228;BME280;12195;55.790;37.572;2023-02-13T00:48:08;99984.28;;;-4.93;77.99
20228;BME280;12195;55.790;37.572;2023-02-13T00:50:40;99970.66;;;-4.90;77.95
20228;BME280;12195;55.790;37.572;2023-02-13T00:53:12;99963.85;;;-4.87;77.98
20228;BME280;12195;55.790;37.572;2023-02-13T00:55:44;99965.61;;;-4.83;77.94
20228;BME280;12195;55.790;37.572;2023-02-13T00:58:17;99975.03;;;-4.79;77.87
20228;BME280;12195;55.790;37.572;2023-02-13T01:00:50;99972.47;;;-4.79;77.89
20228;BME280;12195;55.790;37.572;2023-02-13T01:03:23;99970.81;;;-4.74;77.83
20228;BME280;12195;55.790;37.572;2023-02-13T01:05:56;99977.70;;;-4.71;77.85
20228;BME280;12195;55.790;37.572;2023-02-13T01:08:29;99971.73;;;-4.67;77.80
20228;BME280;12195;55.790;37.572;2023-02-13T01:11:01;99967.53;;;-4.62;77.79
20228;BME280;12195;55.790;37.572;2023-02-13T01:13:33;99962.41;;;-4.62;77.70
20228;BME280;12195;55.790;37.572;2023-02-13T01:16:06;99959.88;;;-4.58;77.70
20228;BME280;12195;55.790;37.572;2023-02-13T01:18:38;99964.16;;;-4.55;77.62
20228;BME280;12195;55.790;37.572;2023-02-13T01:21:16;99957.35;;;-4.55;77.54
20228;BME280;12195;55.790;37.572;2023-02-13T01:23:48;99957.39;;;-4.52;77.50
20228;BME280;12195;55.790;37.572;2023-02-13T01:26:22;99958.24;;;-4.50;77.46
20228;BME280;12195;55.790;37.572;2023-02-13T01:28:54;99959.26;;;-4.34;77.81
20228;BME280;12195;55.790;37.572;2023-02-13T01:31:27;99945.51;;;-4.44;77.38
20228;BME280;12195;55.790;37.572;2023-02-13T01:33:59;99936.22;;;-4.30;77.62
20228;BME280;12195;55.790;37.572;2023-02-13T01:36:31;99930.17;;;-4.38;77.09
20228;BME280;12195;55.790;37.572;2023-02-13T01:39:03;99919.91;;;-4.39;77.09
20228;BME280;12195;55.790;37.572;2023-02-13T01:41:36;99913.11;;;-4.37;77.06
20228;BME280;12195;55.790;37.572;2023-02-13T01:44:45;99917.37;;;-4.36;77.05
20228;BME280;12195;55.790;37.572;2023-02-13T01:47:28;99909.73;;;-4.33;77.07
20228;BME280;12195;55.790;37.572;2023-02-13T01:50:03;99904.62;;;-4.32;76.99
20228;BME280;12195;55.790;37.572;2023-02-13T01:52:32;99896.94;;;-4.32;76.96
20228;BME280;12195;55.790;37.572;2023-02-13T01:55:05;99888.39;;;-4.31;76.90
20228;BME280;12195;55.790;37.572;2023-02-13T01:57:41;99884.98;;;-4.30;76.84
20228;BME280;12195;55.790;37.572;2023-02-13T02:00:15;99884.15;;;-4.26;76.80
20228;BME280;12195;55.790;37.572;2023-02-13T02:02:54;99874.71;;;-4.31;76.71
20228;BME280;12195;55.790;37.572;2023-02-13T02:05:25;99868.73;;;-4.33;76.72
20228;BME280;12195;55.790;37.572;2023-02-13T02:07:59;99870.45;;;-4.31;76.78
20228;BME280;12195;55.790;37.572;2023-02-13T02:10:33;99872.19;;;-4.27;76.91
20228;BME280;12195;55.790;37.572;2023-02-13T02:13:15;99877.34;;;-4.21;77.08
20228;BME280;12195;55.790;37.572;2023-02-13T02:15:49;99864.51;;;-4.27;77.00
20228;BME280;12195;55.790;37.572;2023-02-13T02:18:22;99859.42;;;-4.19;77.02
20228;BME280;12195;55.790;37.572;2023-02-13T02:21:22;99864.53;;;-4.21;76.95
20228;BME280;12195;55.790;37.572;2023-02-13T02:26:56;99845.77;;;-4.17;76.77
20228;BME280;12195;55.790;37.572;2023-02-13T02:32:21;99849.23;;;-4.12;76.62
20228;BME280;12195;55.790;37.572;2023-02-13T02:35:01;99843.25;;;-4.11;76.55
20228;BME280;12195;55.790;37.572;2023-02-13T02:45:38;99832.20;;;-3.99;76.45
20228;BME280;12195;55.790;37.572;2023-02-13T02:48:22;99817.67;;;-4.00;76.32
20228;BME280;12195;55.790;37.572;2023-02-13T02:51:13;99816.80;;;-4.01;76.26
20228;BME280;12195;55.790;37.572;2023-02-13T02:56:26;99810.84;;;-3.97;76.27
20228;BME280;12195;55.790;37.572;2023-02-13T02:59:05;99804.91;;;-3.90;76.13
20228;BME280;12195;55.790;37.572;2023-02-13T03:01:56;99806.61;;;-3.93;76.20
20228;BME280;12195;55.790;37.572;2023-02-13T03:04:52;99799.77;;;-3.90;76.12
20228;BME280;12195;55.790;37.572;2023-02-13T03:07:43;99800.63;;;-3.86;76.28
20228;BME280;12195;55.790;37.572;2023-02-13T03:10:28;99791.25;;;-3.81;76.17
20228;BME280;12195;55.790;37.572;2023-02-13T03:13:48;99788.68;;;-3.81;76.08
20228;BME280;12195;55.790;37.572;2023-02-13T03:15:53;99791.25;;;-3.80;76.20
20228;BME280;12195;55.790;37.572;2023-02-13T03:18:46;99786.16;;;-3.74;76.30
20228;BME280;12195;55.790;37.572;2023-02-13T03:21:58;99779.33;;;-3.69;76.40
20228;BME280;12195;55.790;37.572;2023-02-13T03:27:50;99772.48;;;-3.73;76.32
20228;BME280;12195;55.790;37.572;2023-02-13T03:30:47;99762.22;;;-3.74;76.34
20228;BME280;12195;55.790;37.572;2023-02-13T03:33:35;99752.81;;;-3.69;76.40
20228;BME280;12195;55.790;37.572;2023-02-13T03:39:19;99745.14;;;-3.66;76.52
20228;BME280;12195;55.790;37.572;2023-02-13T03:41:59;99725.50;;;-3.57;76.63
20228;BME280;12195;55.790;37.572;2023-02-13T03:44:45;99722.06;;;-3.59;76.64
20228;BME280;12195;55.790;37.572;2023-02-13T03:47:13;99715.23;;;-3.57;76.59
20228;BME280;12195;55.790;37.572;2023-02-13T03:49:49;99715.25;;;-3.55;76.66
20228;BME280;12195;55.790;37.572;2023-02-13T03:52:57;99718.66;;;-3.52;76.72
20228;BME280;12195;55.790;37.572;2023-02-13T03:55:37;99715.25;;;-3.46;76.71
20228;BME280;12195;55.790;37.572;2023-02-13T03:58:27;99717.84;;;-3.30;76.92
20228;BME280;12195;55.790;37.572;2023-02-13T04:01:18;99728.08;;;-3.39;76.90
20228;BME280;12195;55.790;37.572;2023-02-13T04:04:11;99717.83;;;-3.36;76.85
20228;BME280;12195;55.790;37.572;2023-02-13T04:06:58;99723.83;;;-3.35;76.88
20228;BME280;12195;55.790;37.572;2023-02-13T04:09:32;99728.10;;;-3.33;76.86
20228;BME280;12195;55.790;37.572;2023-02-13T04:14:49;99708.42;;;-3.28;76.97
20228;BME280;12195;55.790;37.572;2023-02-13T04:17:35;99705.00;;;-3.24;77.12
20228;BME280;12195;55.790;37.572;2023-02-13T04:20:00;99698.17;;;-3.23;77.31
20228;BME280;12195;55.790;37.572;2023-02-13T04:22:32;99693.02;;;-3.19;77.35
20228;BME280;12195;55.790;37.572;2023-02-13T04:25:05;99687.03;;;-3.12;77.44
20228;BME280;12195;55.790;37.572;2023-02-13T04:27:38;99671.61;;;-3.00;77.59
20228;BME280;12195;55.790;37.572;2023-02-13T04:30:11;99662.20;;;-3.04;77.54
20228;BME280;12195;55.790;37.572;2023-02-13T04:32:45;99656.20;;;-3.03;77.42
20228;BME280;12195;55.790;37.572;2023-02-13T04:35:18;99659.64;;;-2.99;77.54
20228;BME280;12195;55.790;37.572;2023-02-13T04:37:52;99653.61;;;-2.92;77.53
20228;BME280;12195;55.790;37.572;2023-02-13T04:40:24;99651.05;;;-2.94;77.59
20228;BME280;12195;55.790;37.572;2023-02-13T04:42:58;99636.50;;;-2.93;77.67
20228;BME280;12195;55.790;37.572;2023-02-13T04:45:35;99646.78;;;-2.89;77.66
20228;BME280;12195;55.790;37.572;2023-02-13T04:48:09;99639.05;;;-2.87;77.64
20228;BME280;12195;55.790;37.572;2023-02-13T04:50:42;99634.77;;;-2.82;77.69
20228;BME280;12195;55.790;37.572;2023-02-13T04:53:15;99629.61;;;-2.79;77.69
20228;BME280;12195;55.790;37.572;2023-02-13T04:55:47;99634.74;;;-2.76;77.74
20228;BME280;12195;55.790;37.572;2023-02-13T04:58:20;99631.27;;;-2.65;77.91
20228;BME280;12195;55.790;37.572;2023-02-13T05:00:53;99617.59;;;-2.68;77.83
20228;BME280;12195;55.790;37.572;2023-02-13T05:03:26;99606.45;;;-2.66;77.78
20228;BME280;12195;55.790;37.572;2023-02-13T05:06:00;99612.45;;;-2.62;77.80
20228;BME280;12195;55.790;37.572;2023-02-13T05:08:32;99606.44;;;-2.60;77.73
20228;BME280;12195;55.790;37.572;2023-02-13T05:11:05;99606.41;;;-2.57;77.92
20228;BME280;12195;55.790;37.572;2023-02-13T05:13:39;99590.11;;;-2.53;77.81
20228;BME280;12195;55.790;37.572;2023-02-13T05:16:12;99583.27;;;-2.52;77.74
20228;BME280;12195;55.790;37.572;2023-02-13T05:18:45;99594.38;;;-2.49;77.72
20228;BME280;12195;55.790;37.572;2023-02-13T05:21:17;99594.38;;;-2.46;77.83
20228;BME280;12195;55.790;37.572;2023-02-13T05:24:08;99601.20;;;-2.39;77.88
20228;BME280;12195;55.790;37.572;2023-02-13T05:26:40;99593.48;;;-2.37;77.88
20228;BME280;12195;55.790;37.572;2023-02-13T05:29:14;99584.90;;;-2.33;77.63
20228;BME280;12195;55.790;37.572;2023-02-13T05:31:53;99583.20;;;-2.37;77.84
20228;BME280;12195;55.790;37.572;2023-02-13T05:34:27;99577.13;;;-2.21;78.09
20228;BME280;12195;55.790;37.572;2023-02-13T05:37:00;99566.03;;;-2.31;77.91
20228;BME280;12195;55.790;37.572;2023-02-13T05:39:32;99565.95;;;-2.19;78.13
20228;BME280;12195;55.790;37.572;2023-02-13T05:42:05;99574.58;;;-2.29;77.77
20228;BME280;12195;55.790;37.572;2023-02-13T05:44:40;99569.37;;;-2.20;77.80
20228;BME280;12195;55.790;37.572;2023-02-13T05:47:13;99572.80;;;-2.18;77.81
20228;BME280;12195;55.790;37.572;2023-02-13T05:49:47;99571.93;;;-2.17;77.77
20228;BME280;12195;55.790;37.572;2023-02-13T05:52:19;99575.36;;;-2.15;77.72
20228;BME280;12195;55.790;37.572;2023-02-13T05:54:51;99578.70;;;-2.04;77.56
20228;BME280;12195;55.790;37.572;2023-02-13T05:57:24;99575.31;;;-2.10;77.35
20228;BME280;12195;55.790;37.572;2023-02-13T05:59:57;99578.70;;;-2.04;77.27
20228;BME280;12195;55.790;37.572;2023-02-13T06:02:31;99573.61;;;-2.11;77.33
20228;BME280;12195;55.790;37.572;2023-02-13T06:05:04;99565.02;;;-2.09;77.13
20228;BME280;12195;55.790;37.572;2023-02-13T06:07:36;99575.23;;;-2.00;77.34
20228;BME280;12195;55.790;37.572;2023-02-13T06:10:09;99572.73;;;-2.07;77.34
20228;BME280;12195;55.790;37.572;2023-02-13T06:12:42;99562.43;;;-2.04;77.20
20228;BME280;12195;55.790;37.572;2023-02-13T06:15:15;99570.95;;;-1.96;77.21
20228;BME280;12195;55.790;37.572;2023-02-13T06:17:47;99571.83;;;-1.99;77.22
20228;BME280;12195;55.790;37.572;2023-02-13T06:20:20;99570.09;;;-1.98;77.23
20228;BME280;12195;55.790;37.572;2023-02-13T06:22:52;99568.37;;;-1.95;77.11
20228;BME280;12195;55.790;37.572;2023-02-13T06:25:25;99564.05;;;-1.93;77.43
20228;BME280;12195;55.790;37.572;2023-02-13T06:27:58;99569.13;;;-1.85;77.46
20228;BME280;12195;55.790;37.572;2023-02-13T06:30:31;99572.50;;;-1.77;77.51
20228;BME280;12195;55.790;37.572;2023-02-13T06:33:04;99569.02;;;-1.69;77.54
20228;BME280;12195;55.790;37.572;2023-02-13T06:35:38;99565.44;;;-1.51;77.49
20228;BME280;12195;55.790;37.572;2023-02-13T06:38:11;99565.42;;;-1.50;77.31
20228;BME280;12195;55.790;37.572;2023-02-13T06:40:45;99552.48;;;-1.44;76.99
20228;BME280;12195;55.790;37.572;2023-02-13T06:43:18;99544.74;;;-1.41;76.68
20228;BME280;12195;55.790;37.572;2023-02-13T06:45:51;99538.62;;;-1.31;76.91
20228;BME280;12195;55.790;37.572;2023-02-13T06:48:26;99528.34;;;-1.34;76.93
20228;BME280;12195;55.790;37.572;2023-02-13T06:50:59;99539.52;;;-1.35;76.94
20228;BME280;12195;55.790;37.572;2023-02-13T06:53:32;99533.47;;;-1.31;76.86
20228;BME280;12195;55.790;37.572;2023-02-13T06:56:05;99529.99;;;-1.27;76.68
20228;BME280;12195;55.790;37.572;2023-02-13T06:58:38;99529.05;;;-1.17;76.30
20228;BME280;12195;55.790;37.572;2023-02-13T07:01:10;99527.37;;;-1.21;76.12
20228;BME280;12195;55.790;37.572;2023-02-13T07:03:42;99517.12;;;-1.27;75.92
20228;BME280;12195;55.790;37.572;2023-02-13T07:06:19;99514.55;;;-1.27;76.25
20228;BME280;12195;55.790;37.572;2023-02-13T07:08:52;99520.56;;;-1.26;76.27
20228;BME280;12195;55.790;37.572;2023-02-13T07:11:26;99520.55;;;-1.25;76.06
20228;BME280;12195;55.790;37.572;2023-02-13T07:13:58;99511.06;;;-1.23;76.06
20228;BME280;12195;55.790;37.572;2023-02-13T07:16:32;99516.18;;;-1.18;76.22
20228;BME280;12195;55.790;37.572;2023-02-13T07:19:04;99501.58;;;-1.19;76.29
20228;BME280;12195;55.790;37.572;2023-02-13T07:21:37;99497.15;;;-1.07;76.08
20228;BME280;12195;55.790;37.572;2023-02-13T07:24:10;99502.27;;;-1.04;75.99
20228;BME280;12195;55.790;37.572;2023-02-13T07:26:42;99497.90;;;-0.97;76.27
20228;BME280;12195;55.790;37.572;2023-02-13T07:29:14;99485.60;;;-0.76;76.28
20228;BME280;12195;55.790;37.572;2023-02-13T07:31:48;99482.06;;;-0.70;76.24
20228;BME280;12195;55.790;37.572;2023-02-13T07:34:21;99481.14;;;-0.65;75.97
20228;BME280;12195;55.790;37.572;2023-02-13T07:36:54;99475.91;;;-0.59;75.66
20228;BME280;12195;55.790;37.572;2023-02-13T07:39:26;99480.90;;;-0.47;75.16
20228;BME280;12195;55.790;37.572;2023-02-13T07:42:02;99473.08;;;-0.42;75.54
20228;BME280;12195;55.790;37.572;2023-02-13T07:44:35;99466.19;;;-0.40;75.34
20228;BME280;12195;55.790;37.572;2023-02-13T07:47:07;99465.12;;;-0.27;75.07
20228;BME280;12195;55.790;37.572;2023-02-13T07:49:41;99461.58;;;-0.20;74.88
20228;BME280;12195;55.790;37.572;2023-02-13T07:52:14;99456.59;;;-0.31;74.27
20228;BME280;12195;55.790;37.572;2023-02-13T07:54:48;99456.59;;;-0.31;74.42
20228;BME280;12195;55.790;37.572;2023-02-13T07:57:21;99461.02;;;-0.39;73.86
20228;BME280;12195;55.790;37.572;2023-02-13T07:59:54;99463.66;;;-0.45;74.42
20228;BME280;12195;55.790;37.572;2023-02-13T08:02:28;99462.75;;;-0.41;74.46
20228;BME280;12195;55.790;37.572;2023-02-13T08:05:00;99460.94;;;-0.36;74.62
20228;BME280;12195;55.790;37.572;2023-02-13T08:07:33;99455.73;;;-0.31;75.19
20228;BME280;12195;55.790;37.572;2023-02-13T08:10:07;99457.36;;;-0.26;74.63
20228;BME280;12195;55.790;37.572;2023-02-13T08:12:57;99452.11;;;-0.21;75.29
20228;BME280;12195;55.790;37.572;2023-02-13T08:15:30;99452.83;;;-0.12;75.65
20228;BME280;12195;55.790;37.572;2023-02-13T08:18:02;99444.92;;;-0.03;75.01
20228;BME280;12195;55.790;37.572;2023-02-13T08:20:34;99447.41;;;0.05;74.89
20228;BME280;12195;55.790;37.572;2023-02-13T08:23:09;99434.38;;;0.11;74.63
20228;BME280;12195;55.790;37.572;2023-02-13T08:25:42;99438.66;;;0.12;74.66
20228;BME280;12195;55.790;37.572;2023-02-13T08:28:15;99433.42;;;0.17;74.25
20228;BME280;12195;55.790;37.572;2023-02-13T08:30:48;99431.73;;;0.16;74.37
20228;BME280;12195;55.790;37.572;2023-02-13T08:33:21;99430.80;;;0.20;74.67
20228;BME280;12195;55.790;37.572;2023-02-13T08:35:54;99414.42;;;0.21;74.56
20228;BME280;12195;55.790;37.572;2023-02-13T08:38:28;99412.33;;;0.41;75.20
20228;BME280;12195;55.790;37.572;2023-02-13T08:41:01;99399.67;;;0.27;74.63
20228;BME280;12195;55.790;37.572;2023-02-13T08:43:33;99402.28;;;0.26;74.69
20228;BME280;12195;55.790;37.572;2023-02-13T08:46:05;99403.97;;;0.27;74.65
20228;BME280;12195;55.790;37.572;2023-02-13T08:48:37;99401.39;;;0.27;74.59
20228;BME280;12195;55.790;37.572;2023-02-13T08:51:12;99395.42;;;0.25;74.82
20228;BME280;12195;55.790;37.572;2023-02-13T08:53:45;99391.05;;;0.28;74.85
20228;BME280;12195;55.790;37.572;2023-02-13T08:56:18;99385.86;;;0.30;74.92
20228;BME280;12195;55.790;37.572;2023-02-13T08:58:51;99382.36;;;0.32;75.21
20228;BME280;12195;55.790;37.572;2023-02-13T09:01:23;99386.56;;;0.38;75.14
20228;BME280;12195;55.790;37.572;2023-02-13T09:03:56;99381.23;;;0.45;75.34
20228;BME280;12195;55.790;37.572;2023-02-13T09:06:29;99382.13;;;0.44;75.36
20228;BME280;12195;55.790;37.572;2023-02-13T09:09:03;99384.63;;;0.49;74.98
20228;BME280;12195;55.790;37.572;2023-02-13T09:11:37;99384.61;;;0.50;75.12
20228;BME280;12195;55.790;37.572;2023-02-13T09:14:09;99387.45;;;0.37;75.82
20228;BME280;12195;55.790;37.572;2023-02-13T09:16:42;99383.09;;;0.39;75.65
20228;BME280;12195;55.790;37.572;2023-02-13T09:19:15;99371.94;;;0.38;75.53
20228;BME280;12195;55.790;37.572;2023-02-13T09:21:47;99370.78;;;0.53;75.86
20228;BME280;12195;55.790;37.572;2023-02-13T09:24:19;99366.64;;;0.44;75.51
20228;BME280;12195;55.790;37.572;2023-02-13T09:26:51;99376.91;;;0.47;75.46
20228;BME280;12195;55.790;37.572;2023-02-13T09:29:24;99360.58;;;0.45;75.95
20228;BME280;12195;55.790;37.572;2023-02-13T09:31:58;99351.95;;;0.48;75.89
20228;BME280;12195;55.790;37.572;2023-02-13T09:34:31;99354.38;;;0.55;75.82
20228;BME280;12195;55.790;37.572;2023-02-13T09:37:03;99335.44;;;0.55;75.90
20228;BME280;12195;55.790;37.572;2023-02-13T09:39:35;99332.74;;;0.61;76.18
20228;BME280;12195;55.790;37.572;2023-02-13T09:42:16;99334.15;;;0.75;76.70
20228;BME280;12195;55.790;37.572;2023-02-13T09:44:48;99328.77;;;0.84;75.95
20228;BME280;12195;55.790;37.572;2023-02-13T09:50:14;99319.58;;;1.09;75.94
20228;BME280;12195;55.790;37.572;2023-02-13T09:52:49;99305.73;;;1.12;76.21
20228;BME280;12195;55.790;37.572;2023-02-13T09:55:26;99310.78;;;1.18;75.65
20228;BME280;12195;55.790;37.572;2023-02-13T09:58:12;99302.80;;;1.27;75.92
20228;BME280;12195;55.790;37.572;2023-02-13T10:00:45;99302.56;;;1.36;75.64
20228;BME280;12195;55.790;37.572;2023-02-13T10:06:23;99292.95;;;1.41;75.42
20228;BME280;12195;55.790;37.572;2023-02-13T10:09:16;99289.58;;;1.39;75.31
20228;BME280;12195;55.790;37.572;2023-02-13T10:14:53;99297.46;;;1.33;75.40
20228;BME280;12195;55.790;37.572;2023-02-13T10:17:29;99287.38;;;1.22;75.76
20228;BME280;12195;55.790;37.572;2023-02-13T10:20:07;99288.98;;;1.28;75.78
20228;BME280;12195;55.790;37.572;2023-02-13T10:22:48;99292.65;;;1.19;75.77
20228;BME280;12195;55.790;37.572;2023-02-13T10:25:34;99280.42;;;1.26;76.11
20228;BME280;12195;55.790;37.572;2023-02-13T10:28:08;99280.48;;;1.23;75.90
20228;BME280;12195;55.790;37.572;2023-02-13T10:30:54;99283.08;;;1.23;76.10
20228;BME280;12195;55.790;37.572;2023-02-13T10:42:05;99271.34;;;1.43;76.34
20228;BME280;12195;55.790;37.572;2023-02-13T10:59:08;99240.67;;;1.62;76.05
20228;BME280;12195;55.790;37.572;2023-02-13T11:01:58;99233.77;;;1.62;75.98
20228;BME280;12195;55.790;37.572;2023-02-13T11:04:30;99229.61;;;1.57;76.19
20228;BME280;12195;55.790;37.572;2023-02-13T11:07:08;99230.58;;;1.53;76.31
20228;BME280;12195;55.790;37.572;2023-02-13T11:09:41;99221.77;;;1.60;76.93
20228;BME280;12195;55.790;37.572;2023-02-13T11:12:32;99208.84;;;1.60;77.04
20228;BME280;12195;55.790;37.572;2023-02-13T11:15:09;99208.63;;;1.67;77.22
20228;BME280;12195;55.790;37.572;2023-02-13T11:17:41;99208.25;;;1.81;77.47
20228;BME280;12195;55.790;37.572;2023-02-13T11:20:41;99206.18;;;1.93;77.00
20228;BME280;12195;55.790;37.572;2023-02-13T11:28:47;99207.61;;;2.03;76.17
20228;BME280;12195;55.790;37.572;2023-02-13T11:31:25;99198.31;;;1.96;75.87
20228;BME280;12195;55.790;37.572;2023-02-13T11:33:59;99205.51;;;1.87;76.04
20228;BME280;12195;55.790;37.572;2023-02-13T11:36:33;99197.98;;;1.78;76.45
20228;BME280;12195;55.790;37.572;2023-02-13T11:39:18;99189.42;;;1.76;76.69
20228;BME280;12195;55.790;37.572;2023-02-13T11:41:51;99191.33;;;1.69;77.10
20228;BME280;12195;55.790;37.572;2023-02-13T11:44:31;99177.58;;;1.67;77.18
20228;BME280;12195;55.790;37.572;2023-02-13T11:47:04;99170.67;;;1.68;77.45
20228;BME280;12195;55.790;37.572;2023-02-13T11:49:38;99165.47;;;1.69;77.83
20228;BME280;12195;55.790;37.572;2023-02-13T11:52:26;99166.29;;;1.70;77.98
20228;BME280;12195;55.790;37.572;2023-02-13T11:55:04;99157.59;;;1.72;77.92
20228;BME280;12195;55.790;37.572;2023-02-13T11:57:36;99156.69;;;1.75;78.31
20228;BME280;12195;55.790;37.572;2023-02-13T12:00:28;99149.67;;;1.78;78.58
20228;BME280;12195;55.790;37.572;2023-02-13T12:03:29;99153.83;;;1.84;78.23
20228;BME280;12195;55.790;37.572;2023-02-13T12:05:38;99142.46;;;1.89;77.94
20228;BME280;12195;55.790;37.572;2023-02-13T12:08:10;99142.34;;;1.92;77.90
20228;BME280;12195;55.790;37.572;2023-02-13T12:10:43;99135.45;;;1.93;78.12
20228;BME280;12195;55.790;37.572;2023-02-13T12:13:24;99131.05;;;1.95;78.01
20228;BME280;12195;55.790;37.572;2023-02-13T12:16:01;99124.97;;;1.97;78.09
20228;BME280;12195;55.790;37.572;2023-02-13T12:18:38;99130.19;;;1.96;78.05
20228;BME280;12195;55.790;37.572;2023-02-13T12:26:49;99126.94;;;1.89;78.08
20228;BME280;12195;55.790;37.572;2023-02-13T12:32:50;99132.86;;;1.93;78.68
20228;BME280;12195;55.790;37.572;2023-02-13T12:35:44;99115.02;;;1.84;78.90
20228;BME280;12195;55.790;37.572;2023-02-13T12:41:23;99118.55;;;1.81;79.30
20228;BME280;12195;55.790;37.572;2023-02-13T12:44:27;99114.20;;;1.82;79.32
20228;BME280;12195;55.790;37.572;2023-02-13T12:47:18;99112.59;;;1.78;79.32
20228;BME280;12195;55.790;37.572;2023-02-13T13:01:16;99085.11;;;1.74;79.87
20228;BME280;12195;55.790;37.572;2023-02-13T13:09:49;99067.91;;;1.73;80.05
20228;BME280;12195;55.790;37.572;2023-02-13T13:12:26;99071.31;;;1.75;80.13
20228;BME280;12195;55.790;37.572;2023-02-13T13:15:13;99070.41;;;1.76;80.23
20228;BME280;12195;55.790;37.572;2023-02-13T13:20:45;99073.03;;;1.74;80.26
20228;BME280;12195;55.790;37.572;2023-02-13T13:23:18;99066.95;;;1.75;80.14
20228;BME280;12195;55.790;37.572;2023-02-13T13:26:12;99071.19;;;1.78;80.18
20228;BME280;12195;55.790;37.572;2023-02-13T13:28:45;99069.59;;;1.74;80.10
20228;BME280;12195;55.790;37.572;2023-02-13T13:31:18;99063.55;;;1.75;80.27
20228;BME280;12195;55.790;37.572;2023-02-13T13:33:55;99069.70;;;1.71;80.32
20228;BME280;12195;55.790;37.572;2023-02-13T13:36:35;99067.20;;;1.68;80.18
20228;BME280;12195;55.790;37.572;2023-02-13T13:42:13;99067.98;;;1.70;80.52
20228;BME280;12195;55.790;37.572;2023-02-13T13:50:22;99054.27;;;1.68;80.45
20228;BME280;12195;55.790;37.572;2023-02-13T13:53:09;99043.91;;;1.68;80.64
20228;BME280;12195;55.790;37.572;2023-02-13T14:01:25;99042.03;;;1.73;80.72
20228;BME280;12195;55.790;37.572;2023-02-13T14:04:36;99043.63;;;1.77;80.93
20228;BME280;12195;55.790;37.572;2023-02-13T14:12:03;99036.86;;;1.73;80.89
20228;BME280;12195;55.790;37.572;2023-02-13T14:17:12;99027.53;;;1.67;81.38
20228;BME280;12195;55.790;37.572;2023-02-13T14:19:50;99027.53;;;1.67;81.58
20228;BME280;12195;55.790;37.572;2023-02-13T14:22:30;99018.13;;;1.65;81.42
20228;BME280;12195;55.790;37.572;2023-02-13T14:25:03;99011.27;;;1.64;81.47
20228;BME280;12195;55.790;37.572;2023-02-13T14:27:38;99019.07;;;1.62;81.49
20228;BME280;12195;55.790;37.572;2023-02-13T14:30:31;99012.21;;;1.61;81.57
20228;BME280;12195;55.790;37.572;2023-02-13T14:33:20;99013.94;;;1.61;81.68
20228;BME280;12195;55.790;37.572;2023-02-13T14:35:43;99009.58;;;1.63;81.79
20228;BME280;12195;55.790;37.572;2023-02-13T14:38:22;99012.13;;;1.64;81.76
20228;BME280;12195;55.790;37.572;2023-02-13T14:40:56;99005.23;;;1.63;81.97
20228;BME280;12195;55.790;37.572;2023-02-13T14:43:52;99008.77;;;1.61;81.93
20228;BME280;12195;55.790;37.572;2023-02-13T14:46:26;98992.46;;;1.59;81.98
20228;BME280;12195;55.790;37.572;2023-02-13T14:49:04;98992.42;;;1.60;82.11
20228;BME280;12195;55.790;37.572;2023-02-13T14:51:39;98994.27;;;1.55;82.06
20228;BME280;12195;55.790;37.572;2023-02-13T14:54:23;98993.28;;;1.59;82.30
20228;BME280;12195;55.790;37.572;2023-02-13T14:57:37;98983.80;;;1.60;82.42
20228;BME280;12195;55.790;37.572;2023-02-13T14:59:46;98975.18;;;1.59;82.39
20228;BME280;12195;55.790;37.572;2023-02-13T15:02:24;98982.94;;;1.59;82.41
20228;BME280;12195;55.790;37.572;2023-02-13T15:05:01;98975.14;;;1.61;82.48
20228;BME280;12195;55.790;37.572;2023-02-13T15:07:36;98965.66;;;1.61;82.57
20228;BME280;12195;55.790;37.572;2023-02-13T15:12:55;98957.80;;;1.64;82.71
20228;BME280;12195;55.790;37.572;2023-02-13T15:15:29;98938.84;;;1.64;82.62
20228;BME280;12195;55.790;37.572;2023-02-13T15:18:46;98931.73;;;1.70;82.81
20228;BME280;12195;55.790;37.572;2023-02-13T15:20:38;98931.77;;;1.69;82.96
20228;BME280;12195;55.790;37.572;2023-02-13T15:23:23;98916.16;;;1.72;82.90
20228;BME280;12195;55.790;37.572;2023-02-13T15:25:57;98908.41;;;1.72;82.77
20228;BME280;12195;55.790;37.572;2023-02-13T15:28:32;98912.77;;;1.70;82.83
20228;BME280;12195;55.790;37.572;2023-02-13T15:31:24;98918.06;;;1.67;82.89
20228;BME280;12195;55.790;37.572;2023-02-13T15:33:51;98912.84;;;1.68;82.92
20228;BME280;12195;55.790;37.572;2023-02-13T15:36:31;98910.99;;;1.72;82.99
20228;BME280;12195;55.790;37.572;2023-02-13T15:39:00;98912.77;;;1.70;82.96
20228;BME280;12195;55.790;37.572;2023-02-13T15:41:46;98898.95;;;1.71;82.99